Terminal Aerodrome Forecast
Issued by NWS Houston/Galveston, TX

Current Version | Previous Version | Text Only | Print | Product List | Glossary On
Versions: 1 2 3 4 5 6 7 8 9 10 11 12 13 14 15 16 17 18 19 20 21 22 23 24 25 26 27 28 29 30 31 32 33 34 35 36 37 38 39 40 41 42 43 44 45 46
854
FTUS44 KHGX 140534
TAFGLS
TAF
KGLS 140534Z 1406/1506 12012KT P6SM SCT035 BKN045
     FM140800 13010KT P6SM BKN015 OVC025
     FM141500 15010KT P6SM BKN025
     FM141800 16014KT P6SM BKN035
     FM142200 15011KT P6SM SCT035 BKN050=

USA.gov is the U.S. government's official web portal to all federal, state and local government web resources and services.